Time;durP1;ratioP1;P1;durP2;ratioP2;P2;SDS_P1;SDS_P2;PMS_P1;PMS_P2;Temp;Humidity;BMP_temperature;BMP_pressure;BME280_temperature;BME280_humidity;BME280_pressure;Samples;Min_cycle;Max_cycle;Signal;HPM_P1;HPM_P2
2023/11/03 00:00:35;;;;;;;2.20;0.90;;;13.00;76.10;;;;;;5012523;28;20458;-47
2023/11/03 00:03:05;;;;;;;1.90;0.60;;;13.00;75.70;;;;;;5011776;28;20436;-48
2023/11/03 00:05:38;;;;;;;2.67;1.13;;;13.00;76.10;;;;;;5010215;28;20475;-46
2023/11/03 00:08:06;;;;;;;1.80;0.90;;;13.00;76.10;;;;;;5009357;28;21768;-46
2023/11/03 00:10:36;;;;;;;3.47;1.70;;;13.00;76.20;;;;;;5012012;28;20474;-46
2023/11/03 00:13:04;;;;;;;1.97;0.87;;;13.00;75.70;;;;;;5010224;28;20539;-47
2023/11/03 00:15:34;;;;;;;1.30;0.90;;;13.00;75.80;;;;;;5008924;28;21004;-48
2023/11/03 00:18:02;;;;;;;1.17;0.67;;;13.00;75.90;;;;;;5006794;28;20440;-46
2023/11/03 00:20:30;;;;;;;4.83;0.60;;;13.00;76.40;;;;;;5011457;28;20476;-47
2023/11/03 00:23:00;;;;;;;1.63;0.80;;;13.00;75.70;;;;;;5008480;28;20934;-48
2023/11/03 00:25:29;;;;;;;2.07;0.90;;;13.00;75.50;;;;;;5007308;28;20469;-46
2023/11/03 00:27:57;;;;;;;1.30;0.70;;;13.00;75.80;;;;;;5007853;28;20442;-46
2023/11/03 00:30:25;;;;;;;1.33;0.80;;;13.00;75.70;;;;;;5012090;28;20457;-47
2023/11/03 00:32:53;;;;;;;1.77;0.60;;;13.00;76.20;;;;;;5009488;28;20508;-48
2023/11/03 00:35:21;;;;;;;2.20;0.93;;;13.00;75.90;;;;;;5008397;28;20535;-47
2023/11/03 00:37:51;;;;;;;1.60;0.60;;;13.00;75.80;;;;;;4990034;28;20479;-46
2023/11/03 00:40:21;;;;;;;1.47;0.67;;;13.00;76.40;;;;;;5008042;28;20460;-50
2023/11/03 00:42:49;;;;;;;0.90;0.60;;;13.00;75.30;;;;;;4989816;28;20441;-46
2023/11/03 00:45:19;;;;;;;1.67;0.87;;;13.00;75.80;;;;;;5009000;28;21032;-47
2023/11/03 00:47:47;;;;;;;2.17;0.90;;;12.90;76.10;;;;;;5007527;28;20810;-47
2023/11/03 00:50:15;;;;;;;1.67;0.80;;;13.00;76.00;;;;;;5028231;28;20559;-47
2023/11/03 00:52:44;;;;;;;1.30;0.80;;;13.00;75.40;;;;;;5011496;28;20471;-46
2023/11/03 00:55:13;;;;;;;1.47;0.70;;;12.90;76.20;;;;;;5025528;28;20469;-48
2023/11/03 00:57:43;;;;;;;3.30;1.13;;;13.00;76.00;;;;;;5007221;28;20454;-47
2023/11/03 01:00:13;;;;;;;1.50;0.70;;;12.90;75.80;;;;;;5032428;28;20470;-47
2023/11/03 01:02:43;;;;;;;1.33;0.60;;;12.90;75.70;;;;;;5027595;28;20926;-47
2023/11/03 01:05:14;;;;;;;2.40;0.70;;;12.90;75.50;;;;;;5028326;28;20543;-47
2023/11/03 01:07:42;;;;;;;2.50;0.93;;;12.90;75.80;;;;;;5004374;28;20429;-47
2023/11/03 01:10:16;;;;;;;2.20;0.80;;;12.90;75.70;;;;;;5029668;28;20463;-48
2023/11/03 01:12:46;;;;;;;1.80;0.93;;;12.90;76.10;;;;;;5027963;28;20493;-48
2023/11/03 01:15:15;;;;;;;2.10;1.03;;;13.00;77.30;;;;;;5028440;28;20999;-48
2023/11/03 01:17:43;;;;;;;1.80;0.80;;;13.00;75.80;;;;;;5028941;28;20860;-47
2023/11/03 01:20:19;;;;;;;1.33;0.50;;;12.90;76.00;;;;;;5029813;28;20464;-48
2023/11/03 01:22:49;;;;;;;1.20;0.57;;;13.00;76.10;;;;;;5003152;28;20426;-47
2023/11/03 01:25:17;;;;;;;1.43;0.63;;;13.00;75.80;;;;;;5024175;28;20996;-47
2023/11/03 01:27:50;;;;;;;2.13;0.70;;;12.90;75.70;;;;;;5028791;28;20433;-47
2023/11/03 01:30:20;;;;;;;1.30;0.50;;;13.00;75.70;;;;;;5030975;28;20488;-47
2023/11/03 01:32:52;;;;;;;1.63;0.40;;;12.90;76.30;;;;;;5026427;28;20479;-48
2023/11/03 01:35:21;;;;;;;1.90;0.90;;;12.90;75.40;;;;;;5006226;28;20467;-46
2023/11/03 01:37:49;;;;;;;1.40;0.67;;;12.90;76.30;;;;;;5027241;28;20436;-47
2023/11/03 01:40:18;;;;;;;3.03;0.60;;;12.90;75.70;;;;;;5027472;28;20475;-46
2023/11/03 01:42:48;;;;;;;2.30;0.60;;;12.90;75.10;;;;;;5010483;28;20799;-46
2023/11/03 01:45:17;;;;;;;1.30;0.63;;;12.90;76.10;;;;;;5028214;28;20470;-50
2023/11/03 01:47:46;;;;;;;4.30;0.80;;;12.90;76.20;;;;;;5025349;28;20502;-46
2023/11/03 01:50:14;;;;;;;1.37;0.80;;;12.90;75.70;;;;;;5027095;28;20840;-46
2023/11/03 01:52:44;;;;;;;2.73;0.80;;;12.90;76.00;;;;;;5027209;28;20958;-45
2023/11/03 01:55:13;;;;;;;1.40;0.70;;;12.90;76.00;;;;;;5026588;28;20491;-47
2023/11/03 01:57:42;;;;;;;1.70;0.50;;;12.90;77.00;;;;;;5027931;28;20441;-48
2023/11/03 02:00:15;;;;;;;1.10;0.80;;;12.90;76.00;;;;;;5010058;28;20814;-46
2023/11/03 02:02:44;;;;;;;2.77;0.80;;;12.90;76.30;;;;;;5009641;28;20821;-49
2023/11/03 02:05:12;;;;;;;1.43;0.57;;;12.90;75.80;;;;;;5023636;28;20475;-47
2023/11/03 02:07:40;;;;;;;2.30;0.70;;;12.90;76.00;;;;;;5025584;28;20495;-47
2023/11/03 02:10:09;;;;;;;1.73;0.63;;;12.80;75.50;;;;;;5008324;28;20490;-45
2023/11/03 02:12:37;;;;;;;1.87;0.67;;;12.90;76.10;;;;;;5010258;28;20435;-46
2023/11/03 02:15:06;;;;;;;4.07;0.90;;;12.90;76.00;;;;;;5010330;28;20460;-48
2023/11/03 02:17:38;;;;;;;1.00;0.50;;;12.80;76.00;;;;;;5025544;28;20461;-47
2023/11/03 02:20:08;;;;;;;1.83;0.90;;;12.80;76.20;;;;;;5025296;28;20463;-46
2023/11/03 02:22:38;;;;;;;3.53;1.00;;;12.80;76.30;;;;;;5027365;28;20424;-47
2023/11/03 02:25:08;;;;;;;1.17;0.50;;;12.90;76.50;;;;;;5023107;28;21003;-46
2023/11/03 02:27:39;;;;;;;2.20;0.80;;;12.90;76.10;;;;;;5010255;28;20422;-46
2023/11/03 02:30:08;;;;;;;2.50;0.50;;;12.90;76.50;;;;;;5030457;28;20483;-48
2023/11/03 02:32:37;;;;;;;1.73;0.60;;;12.80;75.80;;;;;;5019666;28;20451;-46
2023/11/03 02:35:10;;;;;;;2.77;0.90;;;12.80;76.10;;;;;;5023803;28;20484;-48
2023/11/03 02:37:42;;;;;;;1.47;0.80;;;12.80;76.00;;;;;;5026907;28;20972;-47
2023/11/03 02:40:14;;;;;;;2.53;1.50;;;12.80;75.60;;;;;;5021570;28;20557;-46
2023/11/03 02:42:44;;;;;;;2.43;0.60;;;12.80;75.80;;;;;;5007269;28;20443;-45
2023/11/03 02:45:12;;;;;;;1.43;0.70;;;12.90;76.10;;;;;;5003530;28;21054;-46
2023/11/03 02:47:40;;;;;;;1.77;0.60;;;12.90;76.20;;;;;;5023347;28;20853;-48
2023/11/03 02:50:10;;;;;;;1.90;0.63;;;12.80;75.30;;;;;;5022676;28;20456;-48
2023/11/03 02:52:38;;;;;;;1.80;0.70;;;12.80;75.70;;;;;;5026083;28;20452;-48
2023/11/03 02:55:07;;;;;;;1.67;0.50;;;12.80;75.70;;;;;;5003139;28;20484;-48
2023/11/03 02:57:39;;;;;;;1.90;0.80;;;12.80;75.70;;;;;;5025068;28;20800;-47
2023/11/03 03:00:11;;;;;;;1.47;0.80;;;12.80;75.90;;;;;;5011973;28;20474;-46
2023/11/03 03:02:39;;;;;;;3.27;0.87;;;12.80;75.80;;;;;;5007652;28;20447;-47
2023/11/03 03:05:10;;;;;;;3.33;1.23;;;12.80;75.70;;;;;;5023398;28;20463;-47
2023/11/03 03:07:45;;;;;;;2.00;0.90;;;12.80;75.90;;;;;;5001372;28;20440;-46
2023/11/03 03:10:13;;;;;;;1.60;0.93;;;12.80;75.90;;;;;;5025898;28;20486;-47
2023/11/03 03:12:47;;;;;;;2.30;0.80;;;12.80;76.10;;;;;;5026860;28;20445;-47
2023/11/03 03:15:15;;;;;;;1.27;0.70;;;12.80;76.30;;;;;;5023178;28;20461;-45
2023/11/03 03:17:44;;;;;;;2.00;0.83;;;12.80;76.50;;;;;;5027606;28;20437;-46
2023/11/03 03:20:12;;;;;;;2.03;0.67;;;12.80;75.70;;;;;;5028344;28;20554;-48
2023/11/03 03:22:41;;;;;;;2.07;0.80;;;12.80;75.90;;;;;;5006502;28;20420;-47
2023/11/03 03:25:10;;;;;;;1.80;0.83;;;12.80;75.90;;;;;;5025321;28;20496;-46
2023/11/03 03:27:38;;;;;;;2.27;0.60;;;12.80;76.00;;;;;;5024132;28;20446;-46
2023/11/03 03:30:09;;;;;;;1.27;0.40;;;12.80;75.80;;;;;;5028655;28;20465;-46
2023/11/03 03:32:37;;;;;;;1.63;0.73;;;12.80;76.30;;;;;;5008053;28;20467;-46
2023/11/03 03:35:06;;;;;;;2.13;1.13;;;12.80;76.40;;;;;;5006609;28;21151;-46
2023/11/03 03:37:34;;;;;;;2.17;0.60;;;12.80;76.40;;;;;;5021076;28;20430;-45
2023/11/03 03:40:02;;;;;;;2.30;0.47;;;12.80;76.10;;;;;;5002165;28;20795;-45
2023/11/03 03:42:31;;;;;;;3.47;0.80;;;12.80;76.30;;;;;;5022154;28;20476;-46
2023/11/03 03:45:00;;;;;;;1.83;0.80;;;12.80;76.00;;;;;;5026878;28;20554;-45
2023/11/03 03:47:29;;;;;;;2.43;0.70;;;12.80;75.80;;;;;;5028459;28;20853;-46
2023/11/03 03:49:58;;;;;;;2.17;0.80;;;12.80;76.30;;;;;;5011150;28;20463;-46
2023/11/03 03:52:26;;;;;;;1.57;1.00;;;12.80;76.10;;;;;;5029053;28;20913;-46
2023/11/03 03:54:55;;;;;;;1.67;0.77;;;12.80;76.30;;;;;;5006746;28;20463;-46
2023/11/03 03:57:23;;;;;;;3.97;0.93;;;12.80;76.50;;;;;;5030653;28;20633;-45
2023/11/03 03:59:52;;;;;;;2.00;0.60;;;12.70;76.20;;;;;;5027755;28;20869;-46
2023/11/03 04:02:20;;;;;;;3.90;1.27;;;12.80;76.20;;;;;;5029996;28;20435;-45
2023/11/03 04:04:50;;;;;;;4.03;0.80;;;12.80;76.30;;;;;;5026936;28;20471;-46
2023/11/03 04:07:18;;;;;;;2.50;1.00;;;12.80;76.20;;;;;;5029662;28;20424;-46
2023/11/03 04:09:47;;;;;;;1.80;0.80;;;12.80;76.20;;;;;;5026960;28;20456;-46
2023/11/03 04:12:15;;;;;;;2.27;0.80;;;12.80;76.00;;;;;;5029713;28;20821;-46
2023/11/03 04:14:43;;;;;;;2.43;0.90;;;12.70;76.20;;;;;;5012245;28;20563;-45
2023/11/03 04:17:11;;;;;;;3.37;0.93;;;12.70;76.50;;;;;;5027223;28;20452;-46
2023/11/03 04:19:39;;;;;;;3.37;0.83;;;12.70;75.70;;;;;;5028026;28;20472;-46
2023/11/03 04:22:10;;;;;;;4.10;1.17;;;12.70;76.30;;;;;;5028437;28;20454;-46
2023/11/03 04:24:38;;;;;;;3.10;1.00;;;12.70;76.20;;;;;;5025529;28;20822;-45
2023/11/03 04:27:06;;;;;;;3.63;1.07;;;12.70;76.30;;;;;;5028993;28;20440;-46
2023/11/03 04:29:34;;;;;;;1.80;0.80;;;12.70;76.10;;;;;;5011060;28;20459;-46
2023/11/03 04:32:03;;;;;;;4.37;1.80;;;12.70;76.60;;;;;;5029186;28;20440;-45
2023/11/03 04:34:31;;;;;;;3.17;1.13;;;12.70;76.60;;;;;;5027278;28;20467;-45
2023/11/03 04:37:00;;;;;;;1.80;0.70;;;12.70;76.70;;;;;;5029582;28;20889;-46
2023/11/03 04:39:29;;;;;;;2.63;1.10;;;12.70;76.50;;;;;;5025722;28;20808;-46
2023/11/03 04:41:58;;;;;;;2.57;0.77;;;12.70;76.10;;;;;;5029156;28;20421;-46
2023/11/03 04:44:26;;;;;;;1.77;1.00;;;12.70;76.60;;;;;;5010859;28;20878;-46
2023/11/03 04:46:54;;;;;;;2.30;0.70;;;12.70;77.80;;;;;;5028275;28;20455;-46
2023/11/03 04:49:22;;;;;;;3.07;1.00;;;12.70;76.50;;;;;;5027914;28;20439;-45
2023/11/03 04:51:50;;;;;;;3.30;0.90;;;12.70;76.20;;;;;;5025490;28;20438;-46
2023/11/03 04:54:18;;;;;;;2.30;0.90;;;12.70;76.40;;;;;;5025405;28;20436;-46
2023/11/03 04:56:48;;;;;;;7.23;1.43;;;12.70;76.30;;;;;;5010611;28;20832;-46
2023/11/03 04:59:16;;;;;;;2.37;1.00;;;12.70;75.70;;;;;;5024448;28;20440;-46
2023/11/03 05:01:46;;;;;;;1.73;0.70;;;12.70;76.30;;;;;;5027581;28;20457;-46
2023/11/03 05:04:16;;;;;;;2.10;0.80;;;12.70;76.50;;;;;;5028036;28;20469;-46
2023/11/03 05:06:44;;;;;;;2.80;1.00;;;12.70;76.20;;;;;;5027604;28;20460;-46
2023/11/03 05:09:13;;;;;;;5.33;1.63;;;12.70;76.30;;;;;;5023840;28;20936;-45
2023/11/03 05:11:42;;;;;;;2.60;1.10;;;12.70;76.10;;;;;;5025986;28;20420;-46
2023/11/03 05:14:11;;;;;;;2.37;0.90;;;12.70;75.70;;;;;;5027783;28;20418;-46
2023/11/03 05:16:40;;;;;;;3.90;0.90;;;12.70;76.50;;;;;;5026005;28;20480;-46
2023/11/03 05:19:08;;;;;;;5.10;1.03;;;12.70;76.40;;;;;;5024280;28;20443;-46
2023/11/03 05:21:36;;;;;;;1.77;1.07;;;12.70;76.30;;;;;;5026583;28;20640;-46
2023/11/03 05:24:07;;;;;;;2.47;1.10;;;12.70;76.30;;;;;;5021855;28;20435;-46
2023/11/03 05:26:35;;;;;;;4.10;1.10;;;12.70;76.30;;;;;;5026934;28;20468;-46
2023/11/03 05:29:03;;;;;;;2.47;1.10;;;12.70;76.30;;;;;;5011074;28;20420;-46
2023/11/03 05:31:43;;;;;;;3.53;0.80;;;12.70;76.80;;;;;;5025350;28;20992;-46
2023/11/03 05:34:12;;;;;;;2.30;0.80;;;12.70;76.70;;;;;;5027352;28;20442;-46
2023/11/03 05:36:40;;;;;;;7.40;1.67;;;12.70;76.40;;;;;;5027886;28;20479;-46
2023/11/03 05:39:09;;;;;;;5.63;1.17;;;12.70;76.40;;;;;;5024939;28;20437;-46
2023/11/03 05:41:37;;;;;;;3.07;1.03;;;12.70;76.20;;;;;;5032571;28;20452;-46
2023/11/03 05:44:06;;;;;;;2.93;0.87;;;12.70;76.00;;;;;;5029831;28;20478;-46
2023/11/03 05:46:34;;;;;;;3.30;1.00;;;12.70;76.30;;;;;;5030346;28;20464;-46
2023/11/03 05:49:04;;;;;;;2.60;1.37;;;12.70;76.20;;;;;;5025896;28;20966;-46
2023/11/03 05:51:35;;;;;;;1.30;0.67;;;12.60;76.50;;;;;;5024115;28;20996;-46
2023/11/03 05:54:05;;;;;;;3.20;0.87;;;12.70;76.70;;;;;;5024771;28;20451;-46
2023/11/03 05:56:33;;;;;;;3.10;0.90;;;12.70;76.50;;;;;;5007604;28;20486;-47
2023/11/03 05:59:04;;;;;;;1.70;0.90;;;12.70;76.80;;;;;;5026499;28;20813;-45
2023/11/03 06:01:33;;;;;;;4.93;1.10;;;12.70;76.50;;;;;;5025050;28;20502;-46
2023/11/03 06:04:03;;;;;;;1.47;1.00;;;12.70;76.40;;;;;;5026945;28;20938;-45
2023/11/03 06:06:31;;;;;;;2.77;0.80;;;12.70;78.10;;;;;;5024349;28;20484;-46
2023/11/03 06:09:00;;;;;;;2.40;1.00;;;12.70;76.80;;;;;;5023554;28;20440;-46
2023/11/03 06:11:28;;;;;;;2.50;1.00;;;12.70;76.50;;;;;;5009348;28;20464;-46
2023/11/03 06:13:56;;;;;;;3.70;1.23;;;12.70;76.30;;;;;;5028148;28;20429;-45
2023/11/03 06:16:24;;;;;;;3.37;0.87;;;12.70;76.40;;;;;;5023710;28;20559;-46
2023/11/03 06:18:52;;;;;;;1.77;0.67;;;12.70;76.40;;;;;;5026761;28;20444;-46
2023/11/03 06:21:22;;;;;;;2.60;0.87;;;12.70;76.40;;;;;;5025404;28;20776;-46
2023/11/03 06:23:51;;;;;;;3.53;1.00;;;12.70;76.70;;;;;;5024867;28;20975;-45
2023/11/03 06:26:19;;;;;;;3.20;0.90;;;12.70;76.50;;;;;;5026550;28;20471;-46
2023/11/03 06:28:47;;;;;;;2.87;0.90;;;12.70;76.90;;;;;;5026572;28;20420;-46
2023/11/03 06:31:18;;;;;;;2.43;0.80;;;12.70;76.20;;;;;;5027296;28;20838;-46
2023/11/03 06:33:47;;;;;;;3.63;2.10;;;12.70;76.70;;;;;;5006637;28;20551;-45
2023/11/03 06:36:17;;;;;;;2.53;0.90;;;12.70;76.40;;;;;;5027320;28;21020;-45
2023/11/03 06:38:50;;;;;;;0.90;0.53;;;12.70;76.50;;;;;;5024497;28;20537;-46
2023/11/03 06:41:19;;;;;;;2.40;0.73;;;12.70;76.80;;;;;;5026463;28;20490;-47
2023/11/03 06:43:48;;;;;;;2.03;0.70;;;12.70;76.60;;;;;;5026222;28;20470;-46
2023/11/03 06:46:16;;;;;;;3.50;1.00;;;12.70;76.80;;;;;;5027099;28;20500;-45
2023/11/03 06:48:45;;;;;;;4.60;1.30;;;12.70;76.70;;;;;;5026211;28;20546;-46
2023/11/03 06:51:16;;;;;;;1.83;0.87;;;12.70;76.40;;;;;;5027089;28;20481;-46
2023/11/03 06:53:44;;;;;;;1.43;0.80;;;12.60;76.50;;;;;;5007447;28;20471;-47
2023/11/03 06:56:14;;;;;;;1.97;0.90;;;12.70;77.00;;;;;;5024363;28;20528;-46
2023/11/03 06:58:42;;;;;;;2.40;1.03;;;12.60;76.80;;;;;;5024609;28;20459;-46
2023/11/03 07:01:10;;;;;;;2.57;0.90;;;12.70;76.70;;;;;;5022543;28;20488;-47
2023/11/03 07:03:39;;;;;;;2.20;0.70;;;12.70;76.30;;;;;;5027631;28;20440;-46
2023/11/03 07:06:08;;;;;;;2.30;0.93;;;12.70;76.90;;;;;;5024009;28;20469;-46
2023/11/03 07:08:36;;;;;;;1.87;0.73;;;12.70;76.40;;;;;;5008368;28;20442;-46
2023/11/03 07:11:04;;;;;;;2.97;0.70;;;12.60;76.10;;;;;;5024030;28;20565;-47
2023/11/03 07:13:34;;;;;;;1.97;0.60;;;12.70;76.30;;;;;;5029126;28;20537;-44
2023/11/03 07:16:07;;;;;;;2.07;0.97;;;12.60;76.20;;;;;;5023713;28;20487;-47
2023/11/03 07:18:36;;;;;;;2.13;0.93;;;12.60;76.30;;;;;;5024383;28;20451;-46
2023/11/03 07:21:09;;;;;;;2.43;0.80;;;12.60;76.10;;;;;;5023344;28;20890;-46
2023/11/03 07:23:38;;;;;;;1.80;0.73;;;12.60;76.00;;;;;;5028455;28;20448;-44
2023/11/03 07:26:12;;;;;;;3.77;1.07;;;12.60;76.90;;;;;;5030837;28;20849;-46
2023/11/03 07:28:42;;;;;;;4.53;1.33;;;12.60;77.50;;;;;;5030408;28;20435;-46
2023/11/03 07:31:11;;;;;;;3.00;1.20;;;12.60;76.50;;;;;;5028302;28;20455;-46
2023/11/03 07:33:41;;;;;;;4.87;0.97;;;12.60;73.70;;;;;;5030194;28;20451;-45
2023/11/03 07:36:10;;;;;;;7.73;1.37;;;12.50;72.20;;;;;;5029725;28;20564;-46
2023/11/03 07:38:39;;;;;;;3.70;1.77;;;12.50;72.60;;;;;;5024901;28;21025;-46
2023/11/03 07:41:08;;;;;;;4.23;1.30;;;12.60;72.90;;;;;;5028420;28;20467;-46
2023/11/03 07:43:38;;;;;;;2.07;1.07;;;12.60;73.60;;;;;;5030387;28;20979;-46
2023/11/03 07:46:09;;;;;;;2.13;1.00;;;12.60;73.90;;;;;;5027799;28;20483;-46
2023/11/03 07:48:39;;;;;;;4.87;1.70;;;12.60;74.10;;;;;;5020840;28;20850;-46
2023/11/03 07:51:07;;;;;;;2.00;1.03;;;12.60;74.10;;;;;;4994142;28;20475;-46
2023/11/03 07:53:36;;;;;;;3.97;1.20;;;12.60;74.20;;;;;;4989579;28;20449;-46
2023/11/03 07:56:05;;;;;;;2.40;1.13;;;12.60;74.20;;;;;;4991742;28;20741;-46
2023/11/03 07:58:33;;;;;;;3.90;1.37;;;12.60;74.30;;;;;;5014909;28;20444;-46
2023/11/03 08:01:05;;;;;;;5.57;1.10;;;12.60;74.40;;;;;;5012678;28;20470;-46
2023/11/03 08:03:35;;;;;;;3.43;1.10;;;12.60;74.30;;;;;;5008041;28;20440;-46
2023/11/03 08:06:06;;;;;;;3.40;1.03;;;12.60;74.60;;;;;;5008504;28;20908;-46
2023/11/03 08:08:36;;;;;;;2.30;0.80;;;12.60;74.60;;;;;;5009759;28;20460;-45
2023/11/03 08:11:06;;;;;;;2.27;0.97;;;12.60;74.80;;;;;;4993122;28;20459;-46
2023/11/03 08:13:35;;;;;;;3.47;1.10;;;12.60;75.00;;;;;;4994265;28;20441;-45
2023/11/03 08:16:06;;;;;;;1.83;1.00;;;12.60;75.40;;;;;;5010725;28;20634;-46
2023/11/03 08:18:37;;;;;;;2.10;1.10;;;12.60;75.50;;;;;;4988825;28;20452;-45
2023/11/03 08:21:07;;;;;;;2.00;1.20;;;12.60;75.20;;;;;;5005371;28;20461;-47
2023/11/03 08:23:35;;;;;;;3.70;0.97;;;12.70;75.50;;;;;;5005911;28;20470;-47
2023/11/03 08:26:04;;;;;;;3.37;1.43;;;12.70;75.40;;;;;;5013758;28;20470;-45
2023/11/03 08:28:32;;;;;;;3.37;1.03;;;12.70;75.40;;;;;;5013055;28;20436;-46
2023/11/03 08:31:01;;;;;;;1.97;0.77;;;12.70;75.60;;;;;;4999235;28;20839;-46
2023/11/03 08:33:29;;;;;;;2.60;1.00;;;12.70;75.60;;;;;;5009035;28;20445;-46
2023/11/03 08:35:59;;;;;;;3.70;1.00;;;12.70;75.60;;;;;;5010356;28;20491;-46
2023/11/03 08:38:28;;;;;;;5.37;0.93;;;12.70;75.70;;;;;;5008368;28;20473;-44
2023/11/03 08:40:56;;;;;;;6.37;1.40;;;12.70;75.80;;;;;;5011249;28;20457;-46
2023/11/03 08:43:24;;;;;;;3.20;2.83;;;12.70;75.90;;;;;;5008981;28;20942;-47
2023/11/03 08:45:52;;;;;;;1.90;0.90;;;12.70;76.00;;;;;;5006502;28;20484;-45
2023/11/03 08:48:25;;;;;;;4.40;1.20;;;12.70;75.80;;;;;;5016396;28;20446;-46
2023/11/03 08:50:54;;;;;;;1.80;0.80;;;12.70;75.90;;;;;;5030157;28;20451;-46
2023/11/03 08:53:25;;;;;;;2.10;0.70;;;12.70;75.90;;;;;;5027030;28;20833;-46
2023/11/03 08:55:55;;;;;;;4.97;0.97;;;12.70;76.00;;;;;;5026427;28;20528;-46
2023/11/03 08:58:23;;;;;;;4.50;0.97;;;12.70;75.90;;;;;;5029625;28;20509;-46
2023/11/03 09:00:56;;;;;;;1.90;0.80;;;12.80;76.10;;;;;;5027171;28;20986;-45
2023/11/03 09:03:28;;;;;;;2.70;0.87;;;12.80;76.10;;;;;;5027502;28;20479;-46
2023/11/03 09:05:56;;;;;;;3.20;1.10;;;12.80;76.10;;;;;;5029096;28;20476;-46
2023/11/03 09:08:26;;;;;;;2.47;0.93;;;12.80;76.00;;;;;;5008557;28;20874;-46
2023/11/03 09:10:54;;;;;;;2.07;1.10;;;12.80;76.00;;;;;;5024222;28;20534;-46
2023/11/03 09:13:26;;;;;;;2.43;1.53;;;12.80;76.10;;;;;;5027126;28;20445;-46
2023/11/03 09:15:54;;;;;;;2.80;1.50;;;12.80;76.00;;;;;;5026445;28;21009;-46
2023/11/03 09:18:27;;;;;;;1.90;0.80;;;12.80;76.00;;;;;;5025239;28;20488;-45
2023/11/03 09:20:55;;;;;;;5.37;1.20;;;12.80;76.20;;;;;;5007196;28;20464;-46
2023/11/03 09:23:25;;;;;;;2.60;1.00;;;12.80;76.20;;;;;;5023250;28;20881;-45
2023/11/03 09:25:53;;;;;;;4.40;1.60;;;12.80;76.10;;;;;;5028114;28;20515;-45
2023/11/03 09:28:21;;;;;;;1.77;1.23;;;12.80;76.20;;;;;;5029479;28;20457;-46
2023/11/03 09:30:50;;;;;;;2.10;0.83;;;12.80;76.10;;;;;;5027439;28;20464;-46
2023/11/03 09:33:18;;;;;;;1.93;0.87;;;12.80;76.70;;;;;;5027521;28;20444;-46
2023/11/03 09:35:46;;;;;;;3.20;1.27;;;12.80;75.30;;;;;;5028180;28;20477;-46
2023/11/03 09:38:19;;;;;;;3.30;1.10;;;12.80;75.20;;;;;;5026260;28;20845;-45
2023/11/03 09:40:50;;;;;;;4.63;1.40;;;12.80;75.60;;;;;;5026872;28;20479;-46
2023/11/03 09:43:20;;;;;;;1.73;0.90;;;12.80;75.70;;;;;;5029175;28;20446;-45
2023/11/03 09:45:50;;;;;;;3.87;1.23;;;12.80;75.60;;;;;;5026939;28;20554;-46
2023/11/03 09:48:20;;;;;;;2.77;1.10;;;12.80;75.70;;;;;;5015842;28;20465;-46
2023/11/03 09:50:49;;;;;;;3.17;1.20;;;12.80;75.90;;;;;;5010178;28;20547;-46
2023/11/03 09:53:22;;;;;;;2.97;1.20;;;12.80;75.80;;;;;;5007168;28;20441;-46
2023/11/03 09:55:52;;;;;;;3.33;1.20;;;12.80;75.80;;;;;;5007571;28;20474;-46
2023/11/03 09:58:21;;;;;;;4.93;1.03;;;12.80;75.90;;;;;;5008226;28;20474;-46
2023/11/03 10:00:50;;;;;;;2.80;1.37;;;12.80;75.60;;;;;;4989161;28;20552;-46
2023/11/03 10:03:18;;;;;;;8.63;1.30;;;12.80;75.80;;;;;;5007989;28;20991;-47
2023/11/03 10:05:46;;;;;;;2.87;1.30;;;12.80;75.90;;;;;;5010399;28;20529;-44
2023/11/03 10:08:17;;;;;;;2.77;1.17;;;12.80;75.80;;;;;;5007668;28;20456;-47
2023/11/03 10:10:46;;;;;;;2.60;1.27;;;12.80;75.90;;;;;;5007137;28;20457;-47
2023/11/03 10:13:16;;;;;;;4.60;1.13;;;12.80;75.90;;;;;;5008616;28;20434;-47
2023/11/03 10:15:44;;;;;;;3.10;1.60;;;12.80;75.90;;;;;;5009482;28;20991;-47
2023/11/03 10:18:13;;;;;;;3.13;1.00;;;12.80;75.80;;;;;;5004912;28;20467;-47
2023/11/03 10:20:44;;;;;;;3.17;1.27;;;12.80;75.90;;;;;;5008309;28;20461;-46
2023/11/03 10:23:13;;;;;;;2.47;1.07;;;12.80;75.70;;;;;;5005924;28;20910;-46
2023/11/03 10:25:45;;;;;;;1.53;0.80;;;12.70;75.80;;;;;;5007714;28;20504;-47
2023/11/03 10:28:14;;;;;;;4.90;1.20;;;12.80;75.90;;;;;;5008096;28;20448;-45
2023/11/03 10:30:44;;;;;;;6.13;1.60;;;12.80;75.80;;;;;;5006177;28;21150;-47
2023/11/03 10:33:13;;;;;;;3.23;0.97;;;12.80;75.80;;;;;;4988290;28;20457;-47
2023/11/03 10:35:42;;;;;;;4.83;1.27;;;12.70;75.90;;;;;;5006044;28;21007;-47
2023/11/03 10:38:11;;;;;;;2.20;1.27;;;12.80;75.90;;;;;;5005406;28;20468;-46
2023/11/03 10:40:41;;;;;;;3.70;1.20;;;12.80;76.30;;;;;;5006423;28;20463;-45
2023/11/03 10:43:14;;;;;;;2.77;1.30;;;12.80;75.80;;;;;;5008502;28;20500;-46
2023/11/03 10:45:51;;;;;;;3.13;1.07;;;12.70;75.90;;;;;;5006676;28;20476;-47
2023/11/03 10:48:26;;;;;;;4.20;1.13;;;12.80;75.70;;;;;;5010656;28;20453;-46
2023/11/03 10:51:03;;;;;;;1.97;0.80;;;12.80;76.20;;;;;;5025022;28;20476;-46
2023/11/03 10:53:48;;;;;;;4.70;1.37;;;12.70;76.10;;;;;;5007160;28;20448;-46
2023/11/03 10:56:23;;;;;;;3.17;1.40;;;12.80;76.40;;;;;;5027594;28;20570;-46
2023/11/03 10:59:14;;;;;;;3.97;1.40;;;12.70;76.10;;;;;;5026961;28;20977;-46
2023/11/03 11:01:51;;;;;;;1.83;1.20;;;12.80;76.20;;;;;;5011954;28;20454;-46
2023/11/03 11:04:24;;;;;;;3.63;1.10;;;12.80;76.30;;;;;;5028715;28;20514;-46
2023/11/03 11:06:57;;;;;;;5.13;2.03;;;12.70;76.20;;;;;;5031140;28;20457;-46
2023/11/03 11:09:34;;;;;;;8.30;1.70;;;12.80;75.30;;;;;;5026412;28;20440;-46
2023/11/03 11:12:02;;;;;;;4.53;1.20;;;12.70;76.20;;;;;;5032236;28;20446;-46
2023/11/03 11:14:37;;;;;;;2.60;2.20;;;12.70;76.10;;;;;;5030810;28;20949;-46
2023/11/03 11:17:11;;;;;;;3.17;1.33;;;12.70;76.20;;;;;;5032245;28;20448;-46
2023/11/03 11:19:46;;;;;;;2.23;0.97;;;12.80;76.30;;;;;;5028791;28;20471;-46
2023/11/03 11:22:18;;;;;;;2.93;1.20;;;12.70;76.20;;;;;;5029444;28;20444;-46
2023/11/03 11:24:47;;;;;;;5.47;2.30;;;12.70;75.90;;;;;;5023766;28;20466;-46
2023/11/03 11:27:19;;;;;;;6.57;1.60;;;12.70;72.20;;;;;;5025478;28;20468;-46
2023/11/03 11:29:50;;;;;;;10.83;1.70;;;12.80;72.30;;;;;;5025758;28;20479;-46
2023/11/03 11:32:27;;;;;;;4.17;1.90;;;12.80;72.90;;;;;;5011870;28;20821;-46
2023/11/03 11:34:57;;;;;;;4.60;1.60;;;12.70;73.30;;;;;;5029259;28;20467;-45
2023/11/03 11:37:28;;;;;;;6.83;1.20;;;12.70;73.70;;;;;;5027326;28;20448;-46
2023/11/03 11:39:58;;;;;;;2.80;1.20;;;12.70;74.10;;;;;;5028210;28;20463;-46
2023/11/03 11:42:27;;;;;;;4.30;1.10;;;12.70;74.20;;;;;;5027605;28;20464;-46
2023/11/03 11:44:57;;;;;;;3.80;0.80;;;12.80;74.70;;;;;;5027756;28;20998;-46
2023/11/03 11:47:29;;;;;;;3.33;1.37;;;12.80;74.90;;;;;;5008675;28;20453;-46
2023/11/03 11:49:59;;;;;;;3.10;1.20;;;12.80;75.00;;;;;;5024274;28;20475;-46
2023/11/03 11:52:28;;;;;;;6.60;1.70;;;12.80;75.10;;;;;;5030499;28;20439;-46
2023/11/03 11:54:58;;;;;;;2.90;1.90;;;12.80;74.80;;;;;;5023460;28;20465;-46
2023/11/03 11:57:31;;;;;;;3.43;1.60;;;12.80;75.00;;;;;;5026940;28;20440;-47
2023/11/03 11:59:59;;;;;;;3.93;1.40;;;12.80;74.80;;;;;;5026626;28;20864;-46
2023/11/03 12:02:29;;;;;;;1.63;0.90;;;12.80;75.10;;;;;;5025154;28;20945;-46
2023/11/03 12:04:57;;;;;;;3.40;1.27;;;12.90;75.20;;;;;;5029607;28;20982;-46
2023/11/03 12:07:29;;;;;;;2.40;1.53;;;12.90;74.90;;;;;;5010470;28;20531;-46
2023/11/03 12:09:58;;;;;;;3.20;1.10;;;12.90;75.00;;;;;;5004837;28;20453;-46
2023/11/03 12:12:27;;;;;;;1.63;0.80;;;12.90;75.10;;;;;;5031640;28;20440;-46
2023/11/03 12:14:56;;;;;;;5.60;1.33;;;12.90;75.30;;;;;;5027023;28;21081;-46
2023/11/03 12:17:25;;;;;;;3.00;1.17;;;12.90;74.90;;;;;;5027606;28;20535;-46
2023/11/03 12:19:55;;;;;;;3.00;1.23;;;12.90;74.60;;;;;;5005853;28;20464;-46
2023/11/03 12:22:26;;;;;;;2.70;1.00;;;12.90;74.40;;;;;;5030522;28;20431;-47
2023/11/03 12:24:55;;;;;;;2.43;1.10;;;12.90;74.70;;;;;;5006277;28;20546;-46
2023/11/03 12:27:25;;;;;;;2.73;1.17;;;12.90;74.90;;;;;;5030071;28;20436;-46
2023/11/03 12:30:02;;;;;;;1.63;1.00;;;12.90;75.00;;;;;;5006320;28;20471;-46
2023/11/03 12:32:32;;;;;;;6.10;1.27;;;12.90;74.30;;;;;;5025977;28;20441;-46
2023/11/03 12:35:08;;;;;;;2.97;1.03;;;12.90;74.80;;;;;;5017290;28;20452;-44
2023/11/03 12:37:48;;;;;;;3.50;1.20;;;13.00;74.00;;;;;;5006921;28;20454;-46
2023/11/03 12:40:21;;;;;;;3.67;1.37;;;13.00;72.90;;;;;;5025364;28;20472;-46
2023/11/03 12:43:19;;;;;;;4.23;1.13;;;13.00;73.70;;;;;;5006919;28;20572;-46
2023/11/03 12:46:05;;;;;;;3.50;1.43;;;13.10;73.60;;;;;;5027692;28;20463;-46
2023/11/03 12:48:34;;;;;;;4.63;1.60;;;13.00;72.70;;;;;;5025617;28;20456;-46
2023/11/03 12:51:04;;;;;;;4.97;1.60;;;12.90;73.60;;;;;;5008265;28;20471;-46
2023/11/03 12:53:44;;;;;;;1.90;1.10;;;12.90;73.90;;;;;;5018680;28;20456;-46
2023/11/03 12:56:15;;;;;;;2.97;1.13;;;12.90;73.80;;;;;;5025442;28;20856;-46
2023/11/03 12:58:45;;;;;;;2.90;1.20;;;12.90;75.30;;;;;;5026891;28;20443;-46
2023/11/03 13:01:14;;;;;;;5.20;1.47;;;12.90;74.20;;;;;;5023849;28;20481;-46